createdAt,value
2018-06-19T00:01:54.964Z,10.15
2018-06-19T00:04:23.205Z,9.88
2018-06-19T00:06:51.473Z,9.38
2018-06-19T00:09:19.714Z,9.50
2018-06-19T00:11:47.958Z,10.60
2018-06-19T00:14:16.217Z,9.70
2018-06-19T00:16:44.464Z,10.18
2018-06-19T00:19:12.765Z,9.63
2018-06-19T00:21:47.119Z,9.65
2018-06-19T00:24:15.398Z,9.63
2018-06-19T00:26:43.637Z,9.13
2018-06-19T00:29:11.894Z,8.40
2018-06-19T00:31:40.203Z,7.70
2018-06-19T00:34:08.419Z,8.10
2018-06-19T00:36:36.664Z,7.50
2018-06-19T00:39:07.609Z,7.28
2018-06-19T00:41:35.943Z,7.60
2018-06-19T00:44:04.221Z,7.42
2018-06-19T00:46:33.450Z,7.15
2018-06-19T00:49:01.719Z,7.25
2018-06-19T00:51:29.734Z,6.40
2018-06-19T00:53:57.977Z,6.70
2018-06-19T00:56:37.775Z,6.20
2018-06-19T00:59:05.913Z,6.70
2018-06-19T01:01:34.123Z,6.58
2018-06-19T01:04:02.364Z,6.37
2018-06-19T01:06:30.612Z,6.00
2018-06-19T01:08:58.621Z,6.25
2018-06-19T01:11:26.874Z,5.90
2018-06-19T01:13:55.153Z,5.90
2018-06-19T01:16:23.410Z,6.08
2018-06-19T01:18:51.671Z,6.12
2018-06-19T01:21:19.891Z,5.50
2018-06-19T01:23:48.146Z,5.60
2018-06-19T01:26:16.403Z,5.33
2018-06-19T01:28:44.664Z,5.40
2018-06-19T01:31:12.977Z,5.22
2018-06-19T01:33:41.203Z,5.58
2018-06-19T01:36:09.457Z,6.50
2018-06-19T01:38:37.715Z,5.40
2018-06-19T01:41:05.990Z,5.40
2018-06-19T01:43:34.273Z,5.35
2018-06-19T01:46:02.563Z,4.97
2018-06-19T01:48:30.800Z,5.40
2018-06-19T01:50:59.086Z,5.30
2018-06-19T01:53:27.320Z,5.10
2018-06-19T01:55:55.558Z,6.00
2018-06-19T01:58:23.574Z,5.60
2018-06-19T02:00:51.815Z,5.60
2018-06-19T02:03:20.081Z,5.40
2018-06-19T02:05:48.345Z,6.00
2018-06-19T02:08:16.676Z,5.10
2018-06-19T02:10:44.940Z,4.90
2018-06-19T02:13:13.186Z,4.70
2018-06-19T02:15:41.417Z,4.80
2018-06-19T02:18:09.667Z,5.40
2018-06-19T02:20:37.940Z,4.55
2018-06-19T02:23:06.186Z,5.40
2018-06-19T02:25:34.453Z,4.97
2018-06-19T02:28:02.767Z,4.50
2018-06-19T02:30:31.054Z,4.62
2018-06-19T02:32:59.275Z,4.28
2018-06-19T02:35:27.560Z,4.55
2018-06-19T02:37:55.770Z,4.00
2018-06-19T02:40:24.024Z,4.45
2018-06-19T02:42:52.246Z,4.90
2018-06-19T02:45:20.472Z,4.50
2018-06-19T02:47:48.704Z,3.85
2018-06-19T02:50:16.915Z,4.10
2018-06-19T02:52:45.169Z,3.80
2018-06-19T02:55:13.433Z,4.20
2018-06-19T02:57:41.677Z,3.90
2018-06-19T03:00:09.913Z,4.20
2018-06-19T03:02:38.122Z,4.40
2018-06-19T03:05:06.097Z,4.40
2018-06-19T03:07:34.334Z,4.20
2018-06-19T03:10:02.600Z,4.40
2018-06-19T03:12:30.873Z,4.90
2018-06-19T03:14:59.124Z,4.65
2018-06-19T03:17:27.357Z,4.97
2018-06-19T03:19:55.623Z,4.50
2018-06-19T03:22:23.902Z,5.20
2018-06-19T03:24:52.390Z,4.90
2018-06-19T03:27:20.647Z,5.20
2018-06-19T03:29:48.909Z,4.60
2018-06-19T03:32:17.143Z,4.50
2018-06-19T03:34:45.390Z,4.50
2018-06-19T03:37:13.642Z,4.37
2018-06-19T03:39:41.893Z,4.17
2018-06-19T03:42:10.130Z,4.80
2018-06-19T03:44:38.362Z,4.30
2018-06-19T03:47:06.574Z,4.70
2018-06-19T03:49:34.811Z,4.50
2018-06-19T03:52:03.085Z,4.20
2018-06-19T03:54:31.326Z,4.47
2018-06-19T03:56:59.654Z,4.20
2018-06-19T03:59:27.902Z,4.37
2018-06-19T04:01:56.171Z,4.50
2018-06-19T04:04:24.502Z,4.70
2018-06-19T04:06:52.750Z,4.12
2018-06-19T04:09:20.990Z,4.27
2018-06-19T04:11:49.238Z,4.08
2018-06-19T04:14:17.505Z,4.47
2018-06-19T04:16:45.727Z,4.50
2018-06-19T04:19:13.958Z,4.50
2018-06-19T04:21:41.933Z,4.10
2018-06-19T04:24:10.197Z,4.40
2018-06-19T04:26:38.403Z,4.20
2018-06-19T04:29:06.397Z,4.20
2018-06-19T04:31:34.631Z,4.30
2018-06-19T04:34:02.878Z,4.20
2018-06-19T04:36:30.918Z,3.70
2018-06-19T04:38:59.147Z,3.70
2018-06-19T04:41:27.403Z,3.33
2018-06-19T04:43:55.702Z,4.17
2018-06-19T04:46:23.922Z,3.87
2018-06-19T04:48:52.141Z,3.70
2018-06-19T04:51:20.375Z,4.00
2018-06-19T04:53:48.603Z,3.87
2018-06-19T04:56:16.822Z,4.10
2018-06-19T04:58:45.089Z,4.00
2018-06-19T05:01:13.331Z,4.07
2018-06-19T05:03:41.364Z,4.10
2018-06-19T05:06:09.588Z,3.30
2018-06-19T05:08:37.545Z,5.43
2018-06-19T05:11:05.847Z,4.10
2018-06-19T05:13:34.123Z,3.97
2018-06-19T05:16:02.358Z,4.47
2018-06-19T05:18:30.605Z,4.80
2018-06-19T05:20:58.840Z,3.40
2018-06-19T05:23:27.090Z,4.10
2018-06-19T05:25:55.303Z,4.17
2018-06-19T05:28:23.509Z,4.20
2018-06-19T05:30:51.762Z,4.67
2018-06-19T05:33:19.967Z,4.43
2018-06-19T05:35:48.184Z,3.90
2018-06-19T05:38:16.433Z,4.40
2018-06-19T05:40:44.686Z,4.30
2018-06-19T05:43:12.959Z,4.70
2018-06-19T05:45:41.182Z,4.80
2018-06-19T05:48:09.417Z,5.20
2018-06-19T05:50:37.666Z,4.53
2018-06-19T05:53:05.650Z,5.30
2018-06-19T05:55:33.673Z,5.30
2018-06-19T05:58:01.913Z,5.70
2018-06-19T06:00:30.150Z,4.80
2018-06-19T06:02:58.459Z,5.27
2018-06-19T06:05:26.679Z,6.60
2018-06-19T06:07:54.927Z,6.33
2018-06-19T06:10:23.167Z,5.93
2018-06-19T06:12:51.453Z,5.33
2018-06-19T06:15:19.478Z,6.43
2018-06-19T06:17:47.891Z,5.20
2018-06-19T06:20:16.119Z,7.13
2018-06-19T06:22:44.339Z,6.40
2018-06-19T06:25:12.887Z,6.70
2018-06-19T06:27:41.114Z,5.80
2018-06-19T06:30:09.574Z,7.20
2018-06-19T06:32:37.797Z,6.63
2018-06-19T06:35:06.251Z,6.43
2018-06-19T06:37:35.091Z,8.03
2018-06-19T06:40:03.304Z,6.40
2018-06-19T06:42:31.557Z,8.53
2018-06-19T06:44:59.861Z,6.70
2018-06-19T06:47:28.128Z,6.27
2018-06-19T06:49:56.419Z,6.37
2018-06-19T06:52:24.665Z,6.77
2018-06-19T06:54:53.262Z,6.53
2018-06-19T06:57:21.513Z,7.03
2018-06-19T06:59:49.740Z,6.50
2018-06-19T07:02:17.975Z,7.40
2018-06-19T07:04:46.227Z,6.90
2018-06-19T07:07:14.205Z,7.73
2018-06-19T07:09:42.454Z,7.90
2018-06-19T07:12:10.682Z,6.63
2018-06-19T07:14:38.906Z,8.03
2018-06-19T07:17:07.558Z,7.97
2018-06-19T07:19:35.827Z,8.33
2018-06-19T07:26:59.171Z,8.20
2018-06-19T07:29:27.431Z,11.75
2018-06-19T07:31:55.716Z,12.10
2018-06-19T07:34:23.963Z,11.18
2018-06-19T07:36:52.221Z,11.47
2018-06-19T07:39:20.423Z,10.33
2018-06-19T07:41:48.694Z,11.37
2018-06-19T07:44:16.918Z,11.80
2018-06-19T07:46:45.106Z,11.27
2018-06-19T07:49:13.343Z,12.63
2018-06-19T07:51:41.632Z,13.03
2018-06-19T07:54:09.897Z,11.80
2018-06-19T07:56:38.171Z,12.33
2018-06-19T08:01:33.904Z,14.93
2018-06-19T08:04:02.168Z,12.97
2018-06-19T08:06:30.407Z,12.50
2018-06-19T08:08:58.731Z,13.60
2018-06-19T08:11:26.980Z,12.13
2018-06-19T08:13:55.192Z,12.60
2018-06-19T08:16:23.408Z,12.67
2018-06-19T08:18:51.691Z,13.93
2018-06-19T08:21:20.327Z,13.00
2018-06-19T08:23:48.586Z,13.43
2018-06-19T08:26:16.842Z,13.80
2018-06-19T08:28:45.078Z,14.40
2018-06-19T08:31:13.338Z,12.70
2018-06-19T08:33:41.579Z,14.40
2018-06-19T08:36:09.885Z,14.20
2018-06-19T08:38:38.082Z,18.00
2018-06-19T08:41:06.509Z,15.10
2018-06-19T08:43:34.738Z,14.80
2018-06-19T08:46:02.981Z,14.93
2018-06-19T08:48:31.203Z,15.30
2018-06-19T08:50:59.475Z,14.77
2018-06-19T08:53:27.465Z,16.50
2018-06-19T08:55:55.421Z,17.37
2018-06-19T08:58:23.646Z,15.53
2018-06-19T09:00:51.866Z,15.57
2018-06-19T09:03:20.119Z,16.80
2018-06-19T09:05:48.354Z,15.37
2018-06-19T09:08:16.591Z,16.30
2018-06-19T09:10:44.822Z,16.43
2018-06-19T09:13:13.265Z,17.57
2018-06-19T09:15:41.560Z,19.17
2018-06-19T09:18:09.795Z,18.83
2018-06-19T09:20:38.062Z,20.48
2018-06-19T09:23:06.307Z,20.70
2018-06-19T09:25:34.571Z,19.80
2018-06-19T09:28:02.813Z,19.62
2018-06-19T09:30:31.054Z,18.97
2018-06-19T09:32:59.323Z,19.60
2018-06-19T09:35:27.561Z,22.00
2018-06-19T09:37:55.789Z,20.65
2018-06-19T09:40:24.016Z,21.80
2018-06-19T09:42:52.315Z,22.17
2018-06-19T09:45:20.503Z,22.15
2018-06-19T09:47:48.762Z,22.45
2018-06-19T09:50:17.026Z,22.47
2018-06-19T09:52:45.394Z,22.20
2018-06-19T09:55:13.662Z,18.73
2018-06-19T09:57:41.901Z,17.97
2018-06-19T10:00:10.124Z,18.23
2018-06-19T10:02:38.108Z,17.80
2018-06-19T10:05:06.103Z,17.97
2018-06-19T10:07:34.337Z,18.57
2018-06-19T10:10:02.634Z,18.00
2018-06-19T10:12:30.873Z,18.13
2018-06-19T10:14:59.161Z,21.27
2018-06-19T10:17:27.417Z,19.37
2018-06-19T10:19:55.670Z,17.53
2018-06-19T10:22:23.944Z,20.72
2018-06-19T10:24:52.209Z,22.80
2018-06-19T10:27:20.460Z,22.00
2018-06-19T10:29:48.694Z,23.47
2018-06-19T10:32:16.966Z,22.02
2018-06-19T10:34:45.269Z,22.87
2018-06-19T10:37:13.517Z,23.13
2018-06-19T10:39:41.787Z,23.02
2018-06-19T10:42:10.044Z,22.32
2018-06-19T10:44:38.285Z,23.60
2018-06-19T10:47:06.522Z,23.18
2018-06-19T10:49:34.770Z,24.20
2018-06-19T10:52:03.021Z,22.60
2018-06-19T10:54:31.260Z,23.35
2018-06-19T10:56:59.519Z,22.77
2018-06-19T10:59:27.805Z,22.93
2018-06-19T11:01:56.053Z,23.50
2018-06-19T11:04:24.388Z,23.00
2018-06-19T11:06:52.674Z,22.30
2018-06-19T11:09:20.888Z,22.60
2018-06-19T11:11:49.143Z,21.15
2018-06-19T11:14:17.414Z,22.80
2018-06-19T11:16:45.673Z,22.58
2018-06-19T11:19:13.985Z,21.83
2018-06-19T11:21:42.221Z,20.10
2018-06-19T11:24:10.493Z,18.80
2018-06-19T11:26:38.699Z,18.93
2018-06-19T11:29:06.688Z,18.80
2018-06-19T11:31:34.894Z,19.07
2018-06-19T11:34:03.247Z,18.10
2018-06-19T11:36:31.494Z,19.30
2018-06-19T11:38:59.730Z,20.17
2018-06-19T11:41:27.706Z,20.87
2018-06-19T11:43:55.957Z,17.90
2018-06-19T11:46:24.208Z,22.00
2018-06-19T11:48:52.475Z,20.40
2018-06-19T11:51:20.725Z,20.37
2018-06-19T11:53:49.059Z,20.77
2018-06-19T11:56:17.316Z,20.93
2018-06-19T11:58:45.567Z,20.65
2018-06-19T12:01:13.861Z,19.35
2018-06-19T12:03:42.054Z,19.52
2018-06-19T12:06:10.333Z,20.60
2018-06-19T12:08:38.565Z,20.40
2018-06-19T12:11:06.809Z,19.87
2018-06-19T12:13:35.061Z,20.65
2018-06-19T12:16:03.077Z,19.48
2018-06-19T12:18:31.332Z,19.73
2018-06-19T12:20:59.618Z,20.32
2018-06-19T12:23:27.606Z,20.32
2018-06-19T12:25:55.845Z,20.85
2018-06-19T12:28:24.086Z,19.45
2018-06-19T12:30:52.439Z,19.60
2018-06-19T12:33:20.710Z,19.32
2018-06-19T12:35:48.972Z,18.05
2018-06-19T12:38:17.195Z,17.10
2018-06-19T12:40:45.523Z,17.50
2018-06-19T12:43:13.731Z,15.97
2018-06-19T12:45:42.070Z,15.80
2018-06-19T12:48:10.334Z,17.23
2018-06-19T12:52:03.545Z,17.07
2018-06-19T12:54:42.442Z,14.10
2018-06-19T12:57:10.674Z,15.60
2018-06-19T12:59:38.945Z,14.87
2018-06-19T13:02:07.193Z,16.10
2018-06-19T13:04:46.919Z,16.80
2018-06-19T13:07:15.168Z,15.70
2018-06-19T13:09:43.391Z,14.17
2018-06-19T13:13:22.595Z,14.87
2018-06-19T13:15:51.977Z,15.00
2018-06-19T13:18:25.513Z,15.00
2018-06-19T13:20:53.778Z,15.40
2018-06-19T13:23:21.758Z,15.83
2018-06-19T13:25:49.985Z,15.40
2018-06-19T13:28:18.203Z,15.50
2018-06-19T13:30:57.915Z,14.23
2018-06-19T13:33:26.175Z,14.30
2018-06-19T13:35:54.417Z,12.90
2018-06-19T13:38:22.631Z,15.00
2018-06-19T13:41:04.566Z,13.73
2018-06-19T13:43:38.280Z,13.80
2018-06-19T13:46:06.511Z,15.73
2018-06-19T13:48:34.750Z,14.10
2018-06-19T13:51:02.995Z,13.70
2018-06-19T13:53:31.547Z,13.70
2018-06-19T13:57:11.417Z,17.33
2018-06-19T13:59:39.953Z,13.77
2018-06-19T14:02:08.209Z,15.27
2018-06-19T14:04:36.452Z,15.00
2018-06-19T14:07:05.969Z,15.97
2018-06-19T14:09:46.383Z,16.63
2018-06-19T14:12:29.770Z,16.47
2018-06-19T14:14:58.028Z,17.30
2018-06-19T14:17:26.272Z,15.77
2018-06-19T14:19:55.405Z,14.77
2018-06-19T14:22:24.238Z,13.20
2018-06-19T14:24:52.502Z,12.77
2018-06-19T14:27:20.482Z,12.93
2018-06-19T14:29:48.738Z,11.70
2018-06-19T14:32:16.971Z,12.17
2018-06-19T14:34:45.230Z,12.70
2018-06-19T14:37:13.462Z,11.70
2018-06-19T14:39:41.674Z,12.17
2018-06-19T14:42:09.928Z,13.07
2018-06-19T14:44:38.200Z,12.80
2018-06-19T14:47:06.159Z,12.33
2018-06-19T14:49:34.375Z,13.00
2018-06-19T14:52:02.590Z,12.67
2018-06-19T14:54:30.888Z,12.50
2018-06-19T14:56:59.162Z,12.73
2018-06-19T14:59:27.378Z,14.00
2018-06-19T15:01:55.642Z,13.47
2018-06-19T15:04:24.214Z,14.23
2018-06-19T15:06:52.485Z,13.33
2018-06-19T15:09:20.451Z,12.03
2018-06-19T15:11:48.710Z,12.10
2018-06-19T15:14:16.943Z,12.53
2018-06-19T15:16:44.918Z,12.70
2018-06-19T15:19:13.160Z,13.33
2018-06-19T15:21:41.383Z,13.67
2018-06-19T15:24:09.694Z,16.10
2018-06-19T15:26:37.888Z,15.30
2018-06-19T15:29:06.140Z,14.23
2018-06-19T15:31:34.422Z,14.47
2018-06-19T15:34:02.677Z,16.60
2018-06-19T15:36:30.934Z,17.43
2018-06-19T15:38:59.170Z,16.60
2018-06-19T15:41:27.426Z,15.17
2018-06-19T15:43:55.639Z,14.37
2018-06-19T15:46:23.868Z,15.13
2018-06-19T15:48:52.101Z,16.07
2018-06-19T15:51:20.354Z,16.50
2018-06-19T15:53:48.367Z,13.80
2018-06-19T15:56:16.591Z,13.90
2018-06-19T15:58:44.833Z,13.93
2018-06-19T16:01:13.085Z,14.20
2018-06-19T16:03:41.377Z,14.37
2018-06-19T16:06:09.657Z,12.33
2018-06-19T16:08:37.914Z,14.47
2018-06-19T16:11:06.162Z,14.80
2018-06-19T16:13:34.798Z,13.90
2018-06-19T16:16:03.039Z,14.20
2018-06-19T16:18:31.330Z,14.10
2018-06-19T16:20:59.564Z,13.13
2018-06-19T16:23:40.099Z,12.80
2018-06-19T16:26:08.331Z,14.60
2018-06-19T16:28:36.581Z,14.20
2018-06-19T16:31:04.822Z,14.90
2018-06-19T16:33:33.059Z,14.47
2018-06-19T16:36:01.332Z,14.47
2018-06-19T16:38:29.594Z,14.30
2018-06-19T16:40:57.841Z,13.50
2018-06-19T16:43:26.071Z,12.33
2018-06-19T16:45:54.327Z,12.60
2018-06-19T16:48:22.578Z,13.57
2018-06-19T16:50:50.804Z,13.00
2018-06-19T16:53:19.058Z,14.00
2018-06-19T16:55:47.288Z,26.60
2018-06-19T16:58:20.626Z,14.47
2018-06-19T17:00:53.157Z,13.67
2018-06-19T17:03:21.412Z,13.93
2018-06-19T17:08:35.092Z,13.37
2018-06-19T17:11:03.338Z,12.73
2018-06-19T17:13:31.559Z,12.57
2018-06-19T17:16:03.694Z,11.67
2018-06-19T17:18:32.031Z,11.60
2018-06-19T17:21:00.026Z,13.07
2018-06-19T17:23:28.006Z,11.97
2018-06-19T17:25:56.238Z,12.80
2018-06-19T17:28:25.565Z,12.17
2018-06-19T17:30:54.322Z,13.73
2018-06-19T17:33:22.551Z,13.67
2018-06-19T17:35:50.807Z,12.47
2018-06-19T17:38:19.113Z,14.97
2018-06-19T17:40:47.365Z,14.60
2018-06-19T17:43:15.667Z,14.07
2018-06-19T17:45:43.902Z,15.10
2018-06-19T17:48:12.153Z,13.17
2018-06-19T17:50:40.410Z,14.73
2018-06-19T17:53:08.639Z,14.37
2018-06-19T17:55:36.897Z,14.63
2018-06-19T17:58:05.111Z,14.43
2018-06-19T18:00:33.359Z,15.37
2018-06-19T18:03:01.623Z,15.67
2018-06-19T18:05:29.852Z,16.60
2018-06-19T18:07:59.264Z,15.43
2018-06-19T18:10:27.483Z,15.63
2018-06-19T18:12:55.890Z,14.17
2018-06-19T18:15:24.163Z,14.20
2018-06-19T18:17:52.373Z,14.37
2018-06-19T18:20:20.646Z,13.60
2018-06-19T18:22:48.886Z,13.23
2018-06-19T18:25:17.264Z,12.30
2018-06-19T18:27:45.511Z,13.30
2018-06-19T18:30:13.755Z,13.30
2018-06-19T18:32:41.988Z,13.37
2018-06-19T18:35:10.232Z,12.27
2018-06-19T18:37:38.467Z,13.37
2018-06-19T18:40:06.717Z,12.47
2018-06-19T18:42:35.008Z,12.43
2018-06-19T18:45:03.270Z,12.23
2018-06-19T18:47:31.511Z,11.40
2018-06-19T18:49:59.778Z,11.10
2018-06-19T18:52:27.996Z,11.53
2018-06-19T18:54:56.259Z,12.30
2018-06-19T18:57:24.478Z,11.93
2018-06-19T18:59:54.236Z,12.50
2018-06-19T19:02:22.239Z,11.23
2018-06-19T19:04:54.417Z,10.90
2018-06-19T19:07:22.640Z,12.40
2018-06-19T19:09:56.340Z,11.90
2018-06-19T19:12:24.559Z,11.63
2018-06-19T19:15:57.171Z,11.77
2018-06-19T19:18:30.966Z,11.20
2018-06-19T19:21:00.016Z,10.60
2018-06-19T19:23:28.922Z,11.40
2018-06-19T19:25:57.187Z,11.97
2018-06-19T19:28:30.901Z,12.33
2018-06-19T19:30:59.232Z,11.10
2018-06-19T19:33:27.542Z,12.30
2018-06-19T19:36:00.744Z,11.73
2018-06-19T19:38:34.760Z,12.00
2018-06-19T19:41:03.050Z,12.17
2018-06-19T19:43:31.287Z,11.63
2018-06-19T19:45:59.508Z,11.63
2018-06-19T19:48:33.185Z,11.40
2018-06-19T19:51:01.482Z,11.87
2018-06-19T19:53:29.718Z,10.17
2018-06-19T19:56:03.269Z,9.77
2018-06-19T19:58:37.061Z,10.00
2018-06-19T20:01:05.298Z,12.10
2018-06-19T20:03:33.271Z,11.60
2018-06-19T20:06:01.631Z,11.70
2018-06-19T20:08:29.871Z,12.90
2018-06-19T20:10:58.101Z,11.80
2018-06-19T20:13:26.338Z,10.47
2018-06-19T20:15:55.550Z,11.33
2018-06-19T20:18:24.102Z,11.30
2018-06-19T20:20:52.748Z,9.63
2018-06-19T20:23:25.111Z,10.30
2018-06-19T20:25:55.491Z,11.00
2018-06-19T20:28:23.698Z,11.07
2018-06-19T20:30:51.938Z,10.60
2018-06-19T20:33:20.209Z,13.73
2018-06-19T20:35:53.870Z,10.87
2018-06-19T20:38:22.132Z,11.77
2018-06-19T20:40:50.434Z,13.00
2018-06-19T20:43:23.230Z,12.60
2018-06-19T20:45:55.561Z,10.63
2018-06-19T20:48:23.885Z,11.07
2018-06-19T20:50:51.895Z,12.00
2018-06-19T20:53:20.146Z,11.03
2018-06-19T20:55:48.402Z,11.80
2018-06-19T20:58:16.673Z,11.50
2018-06-19T21:00:44.934Z,10.53
2018-06-19T21:03:13.189Z,11.63
2018-06-19T21:05:41.426Z,11.17
2018-06-19T21:08:09.734Z,12.57
2018-06-19T21:10:38.092Z,12.23
2018-06-19T21:13:06.360Z,13.10
2018-06-19T21:15:34.644Z,12.37
2018-06-19T21:18:02.881Z,14.03
2018-06-19T21:20:31.108Z,13.40
2018-06-19T21:22:59.491Z,14.03
2018-06-19T21:25:27.703Z,13.50
2018-06-19T21:27:55.958Z,11.80
2018-06-19T21:30:24.214Z,12.20
2018-06-19T21:32:52.715Z,12.63
2018-06-19T21:35:20.962Z,12.10
2018-06-19T21:37:48.983Z,12.00
2018-06-19T21:40:17.221Z,13.10
2018-06-19T21:42:45.459Z,14.07
2018-06-19T21:45:13.687Z,13.87
2018-06-19T21:47:41.936Z,13.70
2018-06-19T21:50:10.197Z,14.93
2018-06-19T21:52:38.205Z,12.73
2018-06-19T21:55:06.442Z,13.10
2018-06-19T21:57:34.701Z,14.10
2018-06-19T22:00:02.955Z,14.30
2018-06-19T22:02:32.655Z,14.50
2018-06-19T22:05:01.699Z,13.97
2018-06-19T22:07:30.268Z,15.23
2018-06-19T22:09:58.511Z,13.43
2018-06-19T22:12:26.906Z,12.60
2018-06-19T22:14:55.135Z,12.03
2018-06-19T22:17:23.390Z,13.33
2018-06-19T22:19:51.631Z,12.53
2018-06-19T22:22:19.887Z,12.17
2018-06-19T22:24:48.382Z,13.83
2018-06-19T22:27:16.618Z,12.93
2018-06-19T22:29:44.863Z,12.70
2018-06-19T22:32:13.084Z,12.40
2018-06-19T22:34:41.429Z,13.77
2018-06-19T22:37:09.671Z,13.40
2018-06-19T22:39:37.860Z,13.47
2018-06-19T22:42:06.501Z,12.37
2018-06-19T22:44:34.834Z,13.50
2018-06-19T22:47:03.052Z,12.47
2018-06-19T22:49:31.314Z,13.53
2018-06-19T22:51:59.570Z,15.63
2018-06-19T22:54:27.813Z,13.77
2018-06-19T22:56:56.015Z,14.47
2018-06-19T22:59:24.259Z,15.13
2018-06-19T23:01:52.494Z,15.40
2018-06-19T23:04:20.740Z,13.50
2018-06-19T23:06:48.979Z,15.27
2018-06-19T23:09:16.957Z,13.77
2018-06-19T23:11:45.234Z,14.33
2018-06-19T23:14:13.485Z,14.50
2018-06-19T23:16:41.730Z,15.90
2018-06-19T23:19:09.729Z,14.27
2018-06-19T23:21:38.013Z,14.30
2018-06-19T23:24:06.262Z,14.43
2018-06-19T23:26:34.507Z,12.80
2018-06-19T23:29:02.712Z,13.90
2018-06-19T23:31:30.963Z,14.00
2018-06-19T23:33:58.944Z,13.13
2018-06-19T23:36:27.173Z,13.93
2018-06-19T23:38:55.409Z,15.70
2018-06-19T23:41:23.867Z,14.37
2018-06-19T23:43:52.251Z,15.10
2018-06-19T23:46:20.496Z,15.30
2018-06-19T23:48:48.725Z,14.43
2018-06-19T23:51:16.951Z,16.47
2018-06-19T23:53:45.206Z,14.50
2018-06-19T23:56:13.453Z,14.30
2018-06-19T23:58:41.686Z,14.10
